Time;durP1;ratioP1;P1;durP2;ratioP2;P2;SDS_P1;SDS_P2;PMS_P1;PMS_P2;Temp;Humidity;BMP_temperature;BMP_pressure;BME280_temperature;BME280_humidity;BME280_pressure;Samples;Min_cycle;Max_cycle;Signal;HPM_P1;HPM_P2
2023/11/17 00:00:21;;;;;;;8.97;4.53;;;6.60;90.60;;;;;;4995981;28;20201;-76
2023/11/17 00:02:47;;;;;;;8.30;4.50;;;6.60;90.50;;;;;;5012312;28;20210;-77
2023/11/17 00:05:14;;;;;;;8.77;5.03;;;6.60;90.60;;;;;;5014406;28;20989;-77
2023/11/17 00:07:39;;;;;;;9.43;4.27;;;6.70;90.60;;;;;;5016143;28;20675;-76
2023/11/17 00:10:06;;;;;;;10.23;5.10;;;6.70;90.60;;;;;;5015371;28;20448;-76
2023/11/17 00:12:32;;;;;;;6.30;3.90;;;6.60;90.60;;;;;;5016328;28;20193;-75
2023/11/17 00:14:58;;;;;;;5.40;3.53;;;6.70;90.60;;;;;;5013576;28;20563;-76
2023/11/17 00:17:24;;;;;;;5.23;3.40;;;6.60;90.40;;;;;;5014779;28;20202;-78
2023/11/17 00:19:51;;;;;;;5.43;3.23;;;6.60;90.40;;;;;;5012890;28;20189;-75
2023/11/17 00:22:17;;;;;;;4.10;2.90;;;6.60;90.30;;;;;;5012338;28;20504;-76
2023/11/17 00:24:43;;;;;;;4.83;3.23;;;6.60;90.10;;;;;;5012057;28;20476;-76
2023/11/17 00:27:09;;;;;;;6.13;3.20;;;6.60;90.00;;;;;;5012250;28;20551;-76
2023/11/17 00:29:37;;;;;;;4.93;3.00;;;6.60;89.90;;;;;;5012151;28;20459;-75
2023/11/17 00:32:03;;;;;;;5.20;3.07;;;6.60;89.90;;;;;;5012153;28;20429;-74
2023/11/17 00:34:29;;;;;;;7.00;3.33;;;6.60;89.60;;;;;;5011017;28;20461;-75
2023/11/17 00:36:54;;;;;;;4.20;2.40;;;6.60;89.50;;;;;;5011901;28;20444;-75
2023/11/17 00:39:21;;;;;;;3.07;2.40;;;6.50;89.20;;;;;;4994636;28;20201;-75
2023/11/17 00:41:48;;;;;;;3.30;2.50;;;6.50;89.20;;;;;;4992319;28;20182;-74
2023/11/17 00:44:13;;;;;;;4.10;2.20;;;6.60;89.30;;;;;;4974046;28;20453;-76
2023/11/17 00:46:39;;;;;;;4.30;2.53;;;6.50;89.50;;;;;;5006790;28;20449;-75
2023/11/17 00:49:05;;;;;;;4.10;2.47;;;6.50;89.50;;;;;;5012291;28;20218;-77
2023/11/17 00:51:30;;;;;;;5.07;2.33;;;6.50;89.60;;;;;;5013085;28;20182;-76
2023/11/17 00:54:00;;;;;;;4.33;2.37;;;6.50;89.60;;;;;;5012180;28;20550;-76
2023/11/17 00:56:26;;;;;;;3.37;2.23;;;6.50;89.70;;;;;;5015656;28;20268;-75
2023/11/17 00:58:53;;;;;;;4.73;2.70;;;6.40;89.60;;;;;;5011731;28;20455;-76
2023/11/17 01:01:20;;;;;;;3.17;2.10;;;6.40;89.50;;;;;;5012189;28;20429;-75
2023/11/17 01:03:46;;;;;;;3.20;2.10;;;6.30;89.30;;;;;;5010801;28;20823;-76
2023/11/17 01:06:12;;;;;;;3.63;2.07;;;6.40;89.50;;;;;;5011973;28;20515;-75
2023/11/17 01:08:38;;;;;;;3.30;2.23;;;6.40;89.30;;;;;;5011332;28;20567;-75
2023/11/17 01:11:05;;;;;;;3.00;1.97;;;6.40;89.20;;;;;;5012524;28;20193;-76
2023/11/17 01:13:31;;;;;;;1.97;1.53;;;6.30;89.00;;;;;;5011982;28;20279;-74
2023/11/17 01:15:56;;;;;;;2.13;1.20;;;6.40;89.20;;;;;;4995280;28;20800;-76
2023/11/17 01:18:22;;;;;;;2.60;1.60;;;6.30;88.70;;;;;;5012929;28;20274;-77
2023/11/17 01:20:48;;;;;;;2.40;1.50;;;6.30;88.60;;;;;;5013785;28;20217;-75
2023/11/17 01:23:13;;;;;;;2.33;1.57;;;6.30;88.40;;;;;;5007079;28;20224;-75
2023/11/17 01:25:40;;;;;;;2.83;2.00;;;6.20;88.10;;;;;;4993114;28;20277;-75
2023/11/17 01:28:06;;;;;;;3.60;2.03;;;6.20;88.30;;;;;;4992360;28;20214;-75
2023/11/17 01:30:32;;;;;;;2.13;1.70;;;6.20;88.60;;;;;;4992476;28;20521;-74
2023/11/17 01:32:58;;;;;;;3.03;1.77;;;6.20;88.70;;;;;;4991342;28;21002;-74
2023/11/17 01:35:24;;;;;;;3.87;2.20;;;6.20;89.00;;;;;;4991983;28;20437;-75
2023/11/17 01:37:51;;;;;;;3.40;2.30;;;6.20;89.00;;;;;;4992590;28;20270;-75
2023/11/17 01:40:20;;;;;;;7.40;2.17;;;6.30;89.30;;;;;;4991897;28;20481;-75
2023/11/17 01:42:45;;;;;;;2.47;1.70;;;6.30;89.50;;;;;;4991132;28;20421;-75
2023/11/17 01:45:11;;;;;;;2.73;2.00;;;6.30;89.50;;;;;;4993706;28;20448;-75
2023/11/17 01:47:39;;;;;;;2.87;2.03;;;6.30;89.50;;;;;;4995688;28;20256;-74
2023/11/17 01:50:09;;;;;;;3.07;2.00;;;6.20;89.00;;;;;;5014756;28;20424;-75
2023/11/17 01:52:37;;;;;;;3.03;2.03;;;6.20;89.00;;;;;;5014313;28;20560;-75
2023/11/17 01:55:07;;;;;;;5.33;2.70;;;6.20;88.90;;;;;;5014650;28;20595;-76
2023/11/17 01:57:36;;;;;;;3.50;2.33;;;6.20;88.90;;;;;;5014983;28;20433;-74
2023/11/17 02:00:06;;;;;;;3.10;2.30;;;6.20;89.00;;;;;;5014864;28;20428;-75
2023/11/17 02:02:33;;;;;;;4.43;2.80;;;6.20;89.30;;;;;;5019884;28;20502;-76
2023/11/17 02:04:59;;;;;;;3.67;2.50;;;6.20;89.20;;;;;;4997232;28;21175;-75
2023/11/17 02:07:34;;;;;;;4.67;2.73;;;6.20;89.20;;;;;;5016140;28;20476;-75
2023/11/17 02:10:20;;;;;;;5.60;2.80;;;6.30;89.30;;;;;;5015062;28;20439;-75
2023/11/17 02:13:06;;;;;;;5.27;2.93;;;6.30;89.50;;;;;;4999297;28;20949;-76
2023/11/17 02:15:35;;;;;;;5.30;2.60;;;6.30;89.50;;;;;;5014358;28;20428;-73
2023/11/17 02:18:04;;;;;;;4.10;2.90;;;6.30;89.50;;;;;;5014199;28;20421;-74
2023/11/17 02:20:34;;;;;;;5.80;2.87;;;6.30;89.50;;;;;;5013824;28;20425;-75
2023/11/17 02:23:07;;;;;;;9.97;3.07;;;6.30;89.60;;;;;;5012724;28;20421;-76
2023/11/17 02:26:13;;;;;;;6.03;2.73;;;6.30;89.00;;;;;;5013761;28;20494;-77
2023/11/17 02:28:58;;;;;;;5.53;2.70;;;6.30;88.90;;;;;;5013599;28;20884;-75
2023/11/17 02:31:29;;;;;;;7.77;3.50;;;6.30;88.90;;;;;;5013577;28;20424;-74
2023/11/17 02:33:57;;;;;;;5.37;3.00;;;6.40;89.00;;;;;;5012621;28;20436;-75
2023/11/17 02:36:26;;;;;;;6.83;3.97;;;6.30;88.90;;;;;;5013284;28;20427;-75
2023/11/17 02:38:56;;;;;;;7.67;3.90;;;6.30;88.90;;;;;;5013424;28;20428;-74
2023/11/17 02:41:29;;;;;;;10.07;3.90;;;6.30;89.00;;;;;;5013208;28;20428;-75
2023/11/17 02:43:59;;;;;;;7.53;4.30;;;6.30;89.00;;;;;;5012490;28;20448;-76
2023/11/17 02:46:26;;;;;;;11.20;4.70;;;6.40;89.30;;;;;;5013451;28;20452;-76
2023/11/17 02:48:52;;;;;;;6.47;3.93;;;6.30;89.30;;;;;;5013224;28;20475;-76
2023/11/17 02:51:18;;;;;;;9.67;4.67;;;6.30;89.30;;;;;;5013509;28;20429;-76
2023/11/17 02:53:49;;;;;;;5.40;3.90;;;6.40;89.50;;;;;;5012340;28;20216;-75
2023/11/17 02:56:19;;;;;;;11.73;5.37;;;6.40;89.50;;;;;;5015083;28;20450;-75
2023/11/17 02:58:46;;;;;;;8.77;5.03;;;6.40;89.50;;;;;;5014305;28;20428;-75
2023/11/17 03:01:15;;;;;;;7.60;4.50;;;6.50;89.50;;;;;;5015144;28;20494;-75
2023/11/17 03:03:43;;;;;;;8.70;4.53;;;6.50;89.50;;;;;;5014403;28;20949;-75
2023/11/17 03:06:09;;;;;;;11.33;5.40;;;6.50;89.50;;;;;;5013355;28;20460;-76
2023/11/17 03:08:35;;;;;;;8.43;4.43;;;6.50;89.30;;;;;;5013143;28;20584;-76
2023/11/17 03:11:02;;;;;;;11.07;5.20;;;6.50;89.50;;;;;;5012949;28;20209;-75
2023/11/17 03:13:28;;;;;;;11.37;4.50;;;6.60;89.50;;;;;;5012055;28;20448;-76
2023/11/17 03:15:54;;;;;;;6.77;3.83;;;6.60;89.50;;;;;;5013062;28;20429;-75
2023/11/17 03:18:26;;;;;;;8.07;3.73;;;6.60;89.60;;;;;;5014019;28;20842;-74
2023/11/17 03:20:56;;;;;;;6.70;3.87;;;6.50;89.30;;;;;;5013302;28;20424;-74
2023/11/17 03:23:23;;;;;;;6.47;3.27;;;6.40;89.00;;;;;;5011754;28;20448;-73
2023/11/17 03:25:52;;;;;;;5.47;4.00;;;6.40;89.00;;;;;;5014848;28;20425;-77
2023/11/17 03:28:18;;;;;;;7.43;3.70;;;6.50;89.00;;;;;;5015962;28;20472;-74
2023/11/17 03:30:44;;;;;;;7.00;3.50;;;6.60;89.20;;;;;;5013474;28;20512;-75
2023/11/17 03:33:11;;;;;;;11.70;3.57;;;6.50;88.70;;;;;;5017383;28;20463;-75
2023/11/17 03:35:40;;;;;;;7.27;3.47;;;6.50;88.70;;;;;;5013019;28;20200;-74
2023/11/17 03:38:07;;;;;;;4.90;3.10;;;6.40;88.70;;;;;;5012680;28;21021;-75
2023/11/17 03:40:35;;;;;;;4.43;2.90;;;6.40;88.70;;;;;;5013027;28;20428;-75
2023/11/17 03:43:01;;;;;;;6.67;3.00;;;6.50;88.70;;;;;;5015231;28;20421;-75
2023/11/17 03:45:27;;;;;;;5.83;3.03;;;6.40;88.40;;;;;;5003326;28;20468;-75
2023/11/17 03:47:53;;;;;;;6.20;3.00;;;6.40;88.40;;;;;;5013699;28;20474;-76
2023/11/17 03:50:20;;;;;;;4.60;2.30;;;6.40;88.40;;;;;;5012814;28;20197;-75
2023/11/17 03:52:45;;;;;;;4.20;2.53;;;6.50;88.40;;;;;;5012036;28;20621;-77
2023/11/17 03:55:11;;;;;;;5.20;2.40;;;6.40;88.30;;;;;;5017606;28;20452;-75
2023/11/17 03:57:37;;;;;;;4.47;2.20;;;6.40;88.30;;;;;;5018774;28;20277;-74
2023/11/17 04:00:07;;;;;;;3.10;2.00;;;6.30;88.10;;;;;;5016220;28;20280;-75
2023/11/17 04:02:32;;;;;;;4.50;2.10;;;6.20;88.00;;;;;;5018239;28;20425;-75
2023/11/17 04:04:58;;;;;;;3.17;1.90;;;6.20;88.10;;;;;;5018654;28;20543;-75
2023/11/17 04:07:24;;;;;;;4.03;2.43;;;6.20;88.10;;;;;;5018233;28;20305;-75
2023/11/17 04:09:49;;;;;;;3.67;2.10;;;6.30;88.30;;;;;;5019078;28;20190;-75
2023/11/17 04:12:15;;;;;;;7.03;1.70;;;6.30;88.40;;;;;;5018056;28;20655;-74
2023/11/17 04:14:42;;;;;;;2.60;1.77;;;6.40;88.30;;;;;;5015202;28;20209;-74
2023/11/17 04:17:10;;;;;;;3.93;2.10;;;6.40;88.00;;;;;;5008039;28;20492;-76
2023/11/17 04:19:36;;;;;;;4.13;2.00;;;6.40;87.80;;;;;;4997000;28;20444;-75
2023/11/17 04:22:02;;;;;;;3.30;2.20;;;6.40;87.80;;;;;;4994660;28;20565;-75
2023/11/17 04:24:29;;;;;;;2.57;1.90;;;6.40;88.00;;;;;;4995017;28;20502;-75
2023/11/17 04:26:56;;;;;;;7.20;2.83;;;6.30;88.10;;;;;;4992625;28;20429;-75
2023/11/17 04:29:25;;;;;;;4.67;2.00;;;6.20;88.10;;;;;;4994986;28;20451;-75
2023/11/17 04:31:54;;;;;;;3.00;2.20;;;6.20;88.60;;;;;;4975814;28;20456;-75
2023/11/17 04:34:21;;;;;;;7.27;2.27;;;6.20;88.90;;;;;;4992906;28;20832;-76
2023/11/17 04:36:47;;;;;;;3.30;2.10;;;6.20;89.00;;;;;;4994250;28;20429;-73
2023/11/17 04:39:17;;;;;;;3.80;2.30;;;6.10;88.70;;;;;;4998169;28;20433;-75
2023/11/17 04:41:43;;;;;;;4.43;2.50;;;6.10;89.00;;;;;;4999927;28;20505;-75
2023/11/17 04:44:09;;;;;;;3.83;2.80;;;6.10;89.30;;;;;;5000651;28;20524;-73
2023/11/17 04:46:35;;;;;;;6.03;3.00;;;6.10;89.60;;;;;;5016856;28;20444;-75
2023/11/17 04:49:00;;;;;;;3.77;2.63;;;6.10;89.60;;;;;;5017952;28;20698;-76
2023/11/17 04:51:26;;;;;;;3.20;2.70;;;6.10;89.60;;;;;;5012733;28;20612;-75
2023/11/17 04:53:52;;;;;;;6.90;2.53;;;6.10;89.70;;;;;;5013726;28;20586;-74
2023/11/17 04:56:17;;;;;;;4.97;2.43;;;6.10;89.30;;;;;;5012912;28;20537;-75
2023/11/17 04:58:43;;;;;;;6.40;2.30;;;6.10;89.60;;;;;;5012686;28;20626;-75
2023/11/17 05:01:10;;;;;;;8.77;2.50;;;6.10;89.60;;;;;;5013118;28;20190;-75
2023/11/17 05:03:36;;;;;;;5.40;3.20;;;6.10;89.20;;;;;;5012399;28;20218;-74
2023/11/17 05:06:06;;;;;;;5.70;2.67;;;6.10;89.20;;;;;;5014153;28;20484;-75
2023/11/17 05:08:32;;;;;;;6.70;2.87;;;6.20;89.20;;;;;;4995224;28;20218;-73
2023/11/17 05:11:01;;;;;;;4.17;2.00;;;6.10;88.90;;;;;;4992297;28;20432;-76
2023/11/17 05:13:27;;;;;;;3.23;2.10;;;6.20;88.90;;;;;;4990685;28;20599;-75
2023/11/17 05:15:52;;;;;;;5.40;2.20;;;6.20;88.90;;;;;;4991676;28;20508;-74
2023/11/17 05:18:19;;;;;;;3.70;2.30;;;6.10;88.70;;;;;;4991401;28;20205;-75
2023/11/17 05:20:44;;;;;;;5.80;2.23;;;6.10;88.90;;;;;;4991887;28;20178;-74
2023/11/17 05:23:12;;;;;;;3.70;2.23;;;6.10;88.60;;;;;;4993212;28;20422;-75
2023/11/17 05:25:40;;;;;;;3.30;1.93;;;6.10;88.60;;;;;;4995001;28;20193;-75
2023/11/17 05:28:08;;;;;;;3.53;2.37;;;6.10;88.70;;;;;;4994971;28;20469;-76
2023/11/17 05:30:35;;;;;;;7.10;2.40;;;6.10;88.70;;;;;;4995300;28;20442;-75
2023/11/17 05:33:01;;;;;;;3.57;1.83;;;6.10;88.90;;;;;;4994606;28;20508;-75
2023/11/17 05:35:27;;;;;;;4.17;2.10;;;6.10;88.90;;;;;;4995415;28;20521;-77
2023/11/17 05:37:52;;;;;;;2.80;2.10;;;6.10;88.70;;;;;;4995439;28;20420;-76
2023/11/17 05:40:18;;;;;;;3.90;2.40;;;6.00;88.40;;;;;;4995383;28;20190;-75
2023/11/17 05:42:44;;;;;;;4.10;2.30;;;6.10;88.60;;;;;;4994361;28;20273;-74
2023/11/17 05:45:14;;;;;;;4.93;2.77;;;6.10;88.60;;;;;;4997448;28;20452;-75
2023/11/17 05:47:41;;;;;;;3.80;2.30;;;6.10;88.60;;;;;;5015268;28;20222;-75
2023/11/17 05:50:11;;;;;;;6.70;3.00;;;6.10;88.40;;;;;;5019431;28;20476;-74
2023/11/17 05:52:38;;;;;;;3.50;2.07;;;6.10;88.40;;;;;;5014616;28;20424;-76
2023/11/17 05:55:05;;;;;;;3.07;2.13;;;6.10;88.30;;;;;;5014585;28;20455;-74
2023/11/17 05:57:32;;;;;;;4.07;2.20;;;6.10;88.00;;;;;;4998522;28;20921;-75
2023/11/17 05:59:57;;;;;;;6.23;2.33;;;6.10;87.80;;;;;;5016868;28;20519;-74
2023/11/17 06:02:24;;;;;;;6.97;1.90;;;6.10;87.80;;;;;;5015297;28;20468;-75
2023/11/17 06:04:50;;;;;;;4.17;2.00;;;6.10;87.80;;;;;;5015277;28;20222;-76
2023/11/17 06:07:15;;;;;;;4.13;2.30;;;6.00;87.70;;;;;;5016499;28;20921;-76
2023/11/17 06:09:43;;;;;;;3.40;2.20;;;6.10;87.80;;;;;;5017151;28;20558;-75
2023/11/17 06:12:09;;;;;;;5.10;2.50;;;6.10;88.10;;;;;;5019192;28;20257;-75
2023/11/17 06:14:35;;;;;;;3.40;2.30;;;6.10;88.10;;;;;;5015684;28;20945;-76
2023/11/17 06:17:02;;;;;;;3.37;2.00;;;6.10;87.70;;;;;;5007291;28;20425;-76
2023/11/17 06:19:28;;;;;;;3.30;1.97;;;6.10;87.80;;;;;;4995898;28;20345;-77
2023/11/17 06:21:54;;;;;;;3.67;2.00;;;6.10;87.30;;;;;;4995608;28;20460;-74
2023/11/17 06:24:21;;;;;;;4.53;2.30;;;6.10;87.40;;;;;;4997562;28;20655;-75
2023/11/17 06:26:46;;;;;;;4.70;2.20;;;6.10;87.40;;;;;;4994421;28;20418;-75
2023/11/17 06:29:18;;;;;;;6.90;2.47;;;6.20;87.60;;;;;;4994537;28;20500;-76
2023/11/17 06:31:45;;;;;;;3.87;2.40;;;6.20;87.40;;;;;;4994922;28;20187;-75
2023/11/17 06:34:11;;;;;;;5.27;2.47;;;6.20;87.40;;;;;;4993929;28;20438;-75
2023/11/17 06:36:44;;;;;;;7.60;2.47;;;6.30;87.70;;;;;;4994580;28;20926;-75
2023/11/17 06:39:18;;;;;;;4.77;2.67;;;6.20;87.60;;;;;;4994565;28;20491;-76
2023/11/17 06:41:48;;;;;;;5.00;2.73;;;6.20;87.70;;;;;;4994394;28;20758;-76
2023/11/17 06:44:18;;;;;;;6.90;3.20;;;6.20;87.70;;;;;;4994095;28;20434;-76
2023/11/17 06:46:47;;;;;;;5.40;2.87;;;6.20;87.80;;;;;;5009107;28;20436;-75
2023/11/17 06:49:14;;;;;;;3.93;2.70;;;6.20;88.00;;;;;;5014836;28;20483;-76
2023/11/17 06:51:40;;;;;;;8.30;2.50;;;6.20;88.00;;;;;;5014240;28;20779;-74
2023/11/17 06:54:10;;;;;;;7.37;2.70;;;6.20;88.00;;;;;;5014298;28;20935;-73
2023/11/17 06:56:48;;;;;;;7.50;3.07;;;6.20;88.10;;;;;;5015077;28;20425;-76
2023/11/17 06:59:19;;;;;;;5.20;2.73;;;6.20;88.10;;;;;;5014604;28;20562;-76
2023/11/17 07:01:49;;;;;;;5.63;3.40;;;6.30;87.80;;;;;;5014258;28;20413;-76
2023/11/17 07:04:15;;;;;;;5.83;3.00;;;6.30;87.80;;;;;;5014473;28;20803;-77
2023/11/17 07:06:41;;;;;;;5.53;2.90;;;6.30;87.80;;;;;;4997541;28;20447;-77
2023/11/17 07:09:16;;;;;;;6.87;3.50;;;6.30;87.80;;;;;;4994722;28;20587;-75
2023/11/17 07:11:45;;;;;;;6.60;3.60;;;6.30;87.60;;;;;;4995876;28;20757;-75
2023/11/17 07:14:12;;;;;;;5.70;3.47;;;6.30;87.60;;;;;;4995227;28;20578;-76
2023/11/17 07:16:41;;;;;;;5.60;3.00;;;6.30;87.60;;;;;;4994620;28;20432;-76
2023/11/17 07:19:16;;;;;;;5.40;3.00;;;6.30;87.70;;;;;;4994924;28;20422;-76
2023/11/17 07:21:42;;;;;;;6.13;2.67;;;6.30;88.00;;;;;;4994444;28;20425;-76
2023/11/17 07:24:11;;;;;;;7.37;3.73;;;6.30;87.70;;;;;;4977222;28;20461;-76
2023/11/17 07:26:37;;;;;;;6.33;3.30;;;6.20;87.70;;;;;;4994538;28;20972;-75
2023/11/17 07:29:04;;;;;;;20.60;4.20;;;6.20;87.80;;;;;;4999984;28;20490;-76
2023/11/17 07:31:40;;;;;;;5.97;3.00;;;6.20;88.10;;;;;;4986402;28;20441;-76
2023/11/17 07:34:13;;;;;;;6.40;2.93;;;6.20;88.00;;;;;;4999294;28;20437;-76
2023/11/17 07:36:38;;;;;;;7.53;3.20;;;6.20;88.10;;;;;;4995734;28;20414;-75
2023/11/17 07:39:06;;;;;;;8.40;3.43;;;6.20;88.10;;;;;;4995014;28;21172;-77
2023/11/17 07:41:33;;;;;;;6.63;3.33;;;6.10;88.10;;;;;;4994920;28;20206;-76
2023/11/17 07:44:02;;;;;;;4.70;2.80;;;6.10;88.40;;;;;;4996386;28;20434;-74
2023/11/17 07:46:29;;;;;;;6.67;3.13;;;6.10;88.40;;;;;;5009435;28;20444;-77
2023/11/17 07:48:55;;;;;;;5.27;3.23;;;6.10;88.90;;;;;;5015116;28;20591;-75
2023/11/17 07:51:21;;;;;;;5.60;3.10;;;6.10;88.90;;;;;;5014166;28;20452;-74
2023/11/17 07:53:47;;;;;;;5.33;2.90;;;6.10;89.00;;;;;;5013779;28;20984;-75
2023/11/17 07:56:14;;;;;;;4.53;2.80;;;6.10;88.90;;;;;;5018635;28;20205;-77
2023/11/17 07:58:40;;;;;;;4.93;2.67;;;6.20;88.90;;;;;;4998835;28;20433;-75
2023/11/17 08:01:09;;;;;;;4.67;2.87;;;6.30;88.70;;;;;;4995264;28;20488;-75
2023/11/17 08:03:38;;;;;;;5.33;2.53;;;6.30;88.60;;;;;;4994416;28;20852;-76
2023/11/17 08:06:05;;;;;;;14.13;3.90;;;6.30;88.00;;;;;;4994831;28;20421;-76
2023/11/17 08:08:31;;;;;;;5.93;2.97;;;6.40;88.00;;;;;;4995052;28;21028;-76
2023/11/17 08:10:57;;;;;;;9.00;2.80;;;6.40;88.00;;;;;;4995177;28;20518;-75
2023/11/17 08:13:23;;;;;;;7.60;3.20;;;6.40;87.70;;;;;;4996262;28;20449;-75
2023/11/17 08:15:49;;;;;;;4.03;2.40;;;6.40;87.30;;;;;;4998656;28;20429;-77
2023/11/17 08:18:20;;;;;;;5.90;2.80;;;6.40;87.40;;;;;;4978128;28;20594;-77
2023/11/17 08:20:47;;;;;;;8.43;3.40;;;6.50;87.30;;;;;;4998258;28;20199;-78
2023/11/17 08:23:19;;;;;;;7.97;3.40;;;6.50;87.30;;;;;;5000487;28;20779;-75
2023/11/17 08:25:45;;;;;;;4.27;2.50;;;6.50;87.10;;;;;;4998238;28;20457;-76
2023/11/17 08:28:11;;;;;;;5.47;2.50;;;6.60;87.30;;;;;;4997726;28;20473;-76
2023/11/17 08:30:37;;;;;;;5.40;2.60;;;6.60;87.10;;;;;;4998558;28;20935;-75
2023/11/17 08:33:07;;;;;;;6.40;3.07;;;6.60;86.90;;;;;;5007807;28;20442;-75
2023/11/17 08:35:32;;;;;;;5.83;3.20;;;6.60;86.80;;;;;;4994787;28;20441;-76
2023/11/17 08:37:58;;;;;;;5.77;2.90;;;6.70;86.80;;;;;;4994476;28;20421;-76
2023/11/17 08:40:24;;;;;;;6.80;3.37;;;6.70;86.80;;;;;;4993816;28;20271;-77
2023/11/17 08:42:50;;;;;;;7.00;3.33;;;6.80;86.60;;;;;;4993176;28;20190;-75
2023/11/17 08:45:16;;;;;;;4.10;2.90;;;6.80;86.50;;;;;;4995974;28;20441;-78
2023/11/17 08:47:44;;;;;;;8.63;3.73;;;6.90;86.20;;;;;;5012377;28;20602;-76
2023/11/17 08:50:11;;;;;;;5.57;3.30;;;6.90;85.60;;;;;;4995908;28;20194;-75
2023/11/17 08:52:39;;;;;;;6.93;3.10;;;6.90;85.70;;;;;;5013426;28;20457;-75
2023/11/17 08:55:05;;;;;;;6.07;3.23;;;7.00;85.70;;;;;;5013358;28;20453;-75
2023/11/17 08:57:35;;;;;;;7.07;3.03;;;7.00;85.70;;;;;;5014426;28;20458;-77
2023/11/17 09:00:11;;;;;;;5.93;3.40;;;7.10;85.70;;;;;;5015186;28;20512;-76
2023/11/17 09:02:40;;;;;;;7.90;3.30;;;7.10;85.30;;;;;;5013732;28;20412;-74
2023/11/17 09:05:08;;;;;;;4.40;2.40;;;7.10;85.50;;;;;;5014252;28;20457;-75
2023/11/17 09:07:37;;;;;;;3.83;2.60;;;7.10;85.20;;;;;;5014403;28;20563;-76
2023/11/17 09:10:03;;;;;;;3.33;2.53;;;7.10;85.00;;;;;;4997247;28;20424;-75
2023/11/17 09:12:31;;;;;;;3.63;2.13;;;7.10;85.20;;;;;;5014750;28;20504;-76
2023/11/17 09:14:57;;;;;;;4.83;2.00;;;7.00;85.20;;;;;;5015004;28;20448;-76
2023/11/17 09:17:24;;;;;;;4.87;2.97;;;7.00;85.30;;;;;;5014622;28;20417;-76
2023/11/17 09:19:49;;;;;;;3.93;2.20;;;7.10;85.50;;;;;;5014611;28;20573;-77
2023/11/17 09:22:15;;;;;;;3.30;2.00;;;7.20;85.60;;;;;;5014921;28;20945;-75
2023/11/17 09:24:40;;;;;;;8.53;2.20;;;7.20;85.00;;;;;;5013581;28;20359;-75
2023/11/17 09:27:09;;;;;;;3.40;2.00;;;7.10;84.40;;;;;;5013993;28;20247;-76
2023/11/17 09:29:35;;;;;;;6.30;2.30;;;7.10;84.90;;;;;;5013696;28;20244;-76
2023/11/17 09:32:01;;;;;;;3.53;2.43;;;7.10;85.20;;;;;;5013315;28;20412;-75
2023/11/17 09:34:27;;;;;;;4.00;2.37;;;7.20;85.50;;;;;;5017734;28;20224;-75
2023/11/17 09:36:52;;;;;;;5.43;2.20;;;7.30;85.50;;;;;;5024381;28;20551;-76
2023/11/17 09:39:18;;;;;;;5.17;2.53;;;7.50;85.50;;;;;;5016820;28;20182;-76
2023/11/17 09:41:46;;;;;;;2.80;1.80;;;7.60;84.70;;;;;;5017521;28;20214;-77
2023/11/17 09:44:15;;;;;;;2.47;1.63;;;7.60;83.80;;;;;;5013954;28;20309;-75
2023/11/17 09:47:15;;;;;;;5.73;1.60;;;7.50;83.60;;;;;;5014328;28;20444;-76
2023/11/17 09:49:42;;;;;;;2.47;1.67;;;7.50;84.00;;;;;;5010888;23;20532;-71
2023/11/17 09:52:10;;;;;;;2.73;1.93;;;7.50;84.00;;;;;;5013273;28;20536;-73
2023/11/17 09:54:37;;;;;;;6.40;1.90;;;7.50;84.10;;;;;;4997779;28;20537;-73
2023/11/17 09:57:04;;;;;;;2.93;1.70;;;7.50;84.10;;;;;;4984007;28;20892;-73
2023/11/17 09:59:32;;;;;;;3.90;2.07;;;7.50;83.80;;;;;;4979435;28;20457;-71
2023/11/17 10:01:59;;;;;;;3.37;1.80;;;7.50;83.80;;;;;;4990365;28;20456;-70
2023/11/17 10:04:25;;;;;;;3.50;1.80;;;7.50;83.80;;;;;;4989178;28;20524;-72
2023/11/17 10:06:52;;;;;;;4.20;1.43;;;7.50;83.80;;;;;;4990930;28;20438;-71
2023/11/17 10:09:21;;;;;;;3.00;1.50;;;7.50;84.00;;;;;;4983275;28;20509;-71
2023/11/17 10:11:50;;;;;;;2.37;1.60;;;7.40;84.00;;;;;;4980563;28;20449;-69
2023/11/17 10:14:18;;;;;;;2.20;1.33;;;7.40;84.10;;;;;;4993188;28;20453;-72
2023/11/17 10:16:45;;;;;;;16.83;2.07;;;7.40;84.30;;;;;;4992142;28;20468;-73
2023/11/17 10:19:15;;;;;;;3.10;1.73;;;7.50;83.80;;;;;;4992816;28;20445;-72
2023/11/17 10:21:42;;;;;;;5.33;2.20;;;7.50;84.00;;;;;;4994775;28;20426;-71
2023/11/17 10:24:08;;;;;;;4.90;3.13;;;7.60;84.10;;;;;;4992720;28;20462;-71
2023/11/17 10:26:35;;;;;;;2.80;1.87;;;7.70;83.60;;;;;;4991745;28;20451;-73
2023/11/17 10:29:05;;;;;;;4.53;2.50;;;7.70;83.40;;;;;;4994523;28;20540;-72
2023/11/17 10:31:39;;;;;;;5.63;3.63;;;7.60;83.10;;;;;;4994569;28;20429;-72
2023/11/17 10:34:14;;;;;;;2.47;1.60;;;7.60;83.30;;;;;;4994406;28;20464;-72
2023/11/17 10:36:59;;;;;;;3.53;1.60;;;7.50;83.00;;;;;;4976558;28;20483;-71
2023/11/17 10:39:24;;;;;;;2.10;1.50;;;7.40;83.00;;;;;;4991070;28;20438;-70
2023/11/17 10:41:51;;;;;;;2.10;1.40;;;7.30;83.30;;;;;;4987669;28;20441;-72
2023/11/17 10:44:30;;;;;;;4.37;2.03;;;7.40;83.40;;;;;;4986663;28;20221;-70
2023/11/17 10:46:56;;;;;;;2.30;1.80;;;7.40;83.30;;;;;;4994396;28;20783;-72
2023/11/17 10:49:22;;;;;;;2.40;1.23;;;7.50;83.40;;;;;;4993988;28;20531;-72
2023/11/17 10:51:49;;;;;;;1.90;1.33;;;7.60;83.30;;;;;;4992853;28;20197;-71
2023/11/17 10:54:16;;;;;;;7.50;2.00;;;7.50;82.40;;;;;;4993653;28;20872;-72
2023/11/17 10:56:47;;;;;;;3.67;1.50;;;7.60;82.70;;;;;;4996461;28;20422;-72
2023/11/17 10:59:19;;;;;;;2.90;1.77;;;7.70;83.00;;;;;;4992345;28;20571;-72
2023/11/17 11:01:45;;;;;;;3.87;1.73;;;7.90;82.50;;;;;;4995985;28;20425;-72
2023/11/17 11:04:32;;;;;;;8.70;3.93;;;7.80;81.80;;;;;;4992704;28;20466;-71
2023/11/17 11:07:01;;;;;;;2.10;1.70;;;7.90;82.40;;;;;;4995880;28;20973;-70
2023/11/17 11:09:35;;;;;;;3.33;1.47;;;7.90;82.70;;;;;;4994842;28;20484;-72
2023/11/17 11:12:06;;;;;;;3.20;1.40;;;8.10;82.80;;;;;;4996344;28;20429;-71
2023/11/17 11:14:32;;;;;;;1.63;1.40;;;8.20;81.50;;;;;;4993029;28;20567;-71
2023/11/17 11:16:58;;;;;;;3.73;1.97;;;8.10;81.20;;;;;;4976303;28;20508;-73
2023/11/17 11:19:28;;;;;;;3.60;1.40;;;8.20;81.80;;;;;;4995172;28;20486;-72
2023/11/17 11:22:00;;;;;;;3.50;1.77;;;8.20;81.40;;;;;;4971765;28;20188;-72
2023/11/17 11:24:33;;;;;;;1.83;1.10;;;8.30;81.70;;;;;;4975467;28;20600;-72
2023/11/17 11:27:01;;;;;;;2.53;1.40;;;8.30;80.30;;;;;;4993948;28;20469;-72
2023/11/17 11:29:28;;;;;;;2.63;1.47;;;8.20;80.50;;;;;;4992175;28;20489;-72
2023/11/17 11:31:55;;;;;;;2.30;1.20;;;8.00;80.20;;;;;;4993364;28;20879;-72
2023/11/17 11:34:21;;;;;;;1.60;1.10;;;8.10;80.60;;;;;;4991076;28;20504;-72
2023/11/17 11:36:48;;;;;;;2.10;1.27;;;7.90;80.80;;;;;;4992360;28;20830;-71
2023/11/17 11:39:14;;;;;;;4.40;1.60;;;7.80;80.90;;;;;;4974562;28;20215;-73
2023/11/17 11:41:41;;;;;;;1.60;0.90;;;7.90;81.10;;;;;;4989206;28;20910;-71
2023/11/17 11:44:09;;;;;;;1.63;1.10;;;7.90;81.50;;;;;;4993701;28;20465;-71
2023/11/17 11:46:37;;;;;;;1.40;1.00;;;7.90;80.90;;;;;;4991403;28;20445;-70
2023/11/17 11:49:06;;;;;;;1.27;1.00;;;7.90;81.10;;;;;;4979196;28;21008;-71
2023/11/17 11:51:40;;;;;;;1.90;1.30;;;7.80;80.90;;;;;;4982234;28;20492;-71
2023/11/17 11:54:08;;;;;;;2.87;2.23;;;7.90;81.20;;;;;;4991300;28;20465;-69
2023/11/17 11:56:35;;;;;;;2.60;1.10;;;8.00;81.10;;;;;;4991603;28;20528;-72
2023/11/17 11:59:05;;;;;;;1.83;1.17;;;8.00;80.60;;;;;;4992403;28;20437;-72
2023/11/17 12:01:32;;;;;;;3.43;1.43;;;7.90;80.90;;;;;;4993335;28;20433;-72
2023/11/17 12:04:00;;;;;;;2.53;1.17;;;7.80;81.40;;;;;;4993656;28;21008;-74
2023/11/17 12:06:27;;;;;;;2.83;1.30;;;7.80;81.90;;;;;;4998329;28;20453;-70
2023/11/17 12:08:58;;;;;;;2.07;1.37;;;7.70;81.80;;;;;;4993487;28;20565;-71
2023/11/17 12:11:32;;;;;;;2.50;1.40;;;7.90;82.10;;;;;;4977352;28;20509;-73
2023/11/17 12:13:58;;;;;;;3.70;1.30;;;7.90;81.40;;;;;;4975556;28;20450;-72
2023/11/17 12:16:30;;;;;;;1.67;1.40;;;7.90;81.10;;;;;;4975135;28;20437;-72
2023/11/17 12:18:58;;;;;;;1.83;1.50;;;7.80;81.20;;;;;;4991891;28;20667;-70
2023/11/17 12:21:25;;;;;;;5.87;2.23;;;7.70;81.10;;;;;;4992968;28;20442;-72
2023/11/17 12:23:54;;;;;;;1.90;1.33;;;7.80;81.50;;;;;;4992660;28;20449;-72
2023/11/17 12:26:22;;;;;;;2.40;1.07;;;7.90;81.80;;;;;;4983460;28;20449;-71
2023/11/17 12:28:48;;;;;;;3.43;1.30;;;7.90;80.80;;;;;;4990492;28;20517;-71
2023/11/17 12:31:15;;;;;;;2.23;1.53;;;7.80;81.50;;;;;;4992054;28;20441;-72
2023/11/17 12:33:46;;;;;;;2.17;1.20;;;7.80;81.70;;;;;;4992810;28;20472;-70
2023/11/17 12:36:15;;;;;;;1.47;1.10;;;7.80;81.90;;;;;;4994439;28;20438;-71
2023/11/17 12:38:43;;;;;;;1.83;1.20;;;7.90;82.20;;;;;;4989857;28;20440;-73
2023/11/17 12:41:12;;;;;;;2.67;1.57;;;7.80;81.50;;;;;;4994313;28;20426;-74
2023/11/17 12:43:39;;;;;;;3.00;1.43;;;7.90;82.20;;;;;;4992886;28;20572;-72
2023/11/17 12:46:07;;;;;;;2.30;1.50;;;7.90;82.20;;;;;;4993374;28;20441;-71
2023/11/17 12:48:33;;;;;;;1.50;1.00;;;8.00;82.20;;;;;;4977940;28;20557;-73
2023/11/17 12:51:01;;;;;;;2.33;1.20;;;7.90;81.40;;;;;;4994620;28;20440;-73
2023/11/17 12:53:45;;;;;;;1.40;1.10;;;7.90;80.30;;;;;;4993269;28;20469;-73
2023/11/17 12:56:12;;;;;;;2.13;1.10;;;7.90;81.10;;;;;;4994660;28;20437;-72
2023/11/17 12:58:39;;;;;;;1.40;0.83;;;8.00;81.20;;;;;;4981595;28;20439;-70
2023/11/17 13:01:19;;;;;;;0.90;0.70;;;8.00;80.50;;;;;;4976709;28;20449;-71